Time;durP1;ratioP1;P1;durP2;ratioP2;P2;SDS_P1;SDS_P2;PMS_P1;PMS_P2;Temp;Humidity;BMP_temperature;BMP_pressure;BME280_temperature;BME280_humidity;BME280_pressure;Samples;Min_cycle;Max_cycle;Signal;HPM_P1;HPM_P2
2020/12/23 00:02:08;;;;;;;1.53;1.20;;;;;;;;;;5096606;28;20256;-82
2020/12/23 00:04:35;;;;;;;1.00;1.00;;;;;;;;;;5096601;28;20236;-83
2020/12/23 00:07:01;;;;;;;1.03;1.03;;;;;;;;;;5096692;28;20225;-83
2020/12/23 00:09:27;;;;;;;1.20;1.10;;;;;;;;;;5096198;28;20641;-83
2020/12/23 00:11:53;;;;;;;0.90;0.90;;;;;;;;;;5094866;28;20222;-84
2020/12/23 00:14:20;;;;;;;1.00;1.00;;;;;;;;;;5096172;28;20240;-82
2020/12/23 00:16:46;;;;;;;0.80;0.80;;;;;;;;;;5096374;28;20641;-83
2020/12/23 00:19:12;;;;;;;1.33;1.13;;;;;;;;;;5096328;28;20241;-82
2020/12/23 00:21:38;;;;;;;1.03;1.03;;;;;;;;;;5096198;28;20242;-83
2020/12/23 00:24:05;;;;;;;1.20;1.20;;;;;;;;;;5096076;28;20226;-83
2020/12/23 00:26:31;;;;;;;1.80;1.37;;;;;;;;;;5096104;28;20240;-82
2020/12/23 00:28:57;;;;;;;1.17;1.10;;;;;;;;;;5095605;28;20567;-83
2020/12/23 00:31:24;;;;;;;1.23;1.00;;;;;;;;;;5095807;28;20232;-82
2020/12/23 00:33:52;;;;;;;1.00;1.00;;;;;;;;;;5095663;28;20238;-81
2020/12/23 00:36:18;;;;;;;1.00;0.80;;;;;;;;;;5096003;28;20622;-81
2020/12/23 00:38:45;;;;;;;1.00;1.00;;;;;;;;;;5096144;28;20230;-81
2020/12/23 00:41:11;;;;;;;1.30;1.20;;;;;;;;;;5095645;28;20264;-82
2020/12/23 00:43:37;;;;;;;0.97;0.97;;;;;;;;;;5095633;28;20614;-83
2020/12/23 00:46:04;;;;;;;2.80;1.37;;;;;;;;;;5094961;28;20236;-81
2020/12/23 00:48:31;;;;;;;1.63;1.53;;;;;;;;;;5095782;28;20222;-82
2020/12/23 00:50:57;;;;;;;1.17;1.13;;;;;;;;;;5095695;28;20633;-82
2020/12/23 00:53:23;;;;;;;1.50;0.80;;;;;;;;;;5095708;28;20226;-82
2020/12/23 00:55:50;;;;;;;2.83;0.90;;;;;;;;;;5095636;28;20226;-82
2020/12/23 00:58:16;;;;;;;1.77;1.10;;;;;;;;;;5095637;28;20241;-82
2020/12/23 01:00:42;;;;;;;0.90;0.90;;;;;;;;;;5095503;28;20572;-81
2020/12/23 01:03:08;;;;;;;1.13;1.00;;;;;;;;;;5095237;28;20283;-81
2020/12/23 01:05:35;;;;;;;1.13;1.13;;;;;;;;;;5094206;28;20573;-81
2020/12/23 01:08:01;;;;;;;0.87;0.87;;;;;;;;;;5095706;28;20234;-82
2020/12/23 01:10:27;;;;;;;1.23;1.00;;;;;;;;;;5095676;28;20233;-81
2020/12/23 01:12:53;;;;;;;0.90;0.90;;;;;;;;;;5095462;28;20229;-81
2020/12/23 01:15:20;;;;;;;3.50;1.20;;;;;;;;;;5095111;28;20233;-81
2020/12/23 01:17:46;;;;;;;1.13;1.00;;;;;;;;;;5095407;28;20618;-82
2020/12/23 01:20:12;;;;;;;0.90;0.90;;;;;;;;;;5094877;28;20229;-82
2020/12/23 01:22:39;;;;;;;2.93;0.90;;;;;;;;;;5095183;28;20253;-82
2020/12/23 01:25:05;;;;;;;0.97;0.97;;;;;;;;;;5094680;28;20327;-81
2020/12/23 01:27:31;;;;;;;1.23;1.17;;;;;;;;;;5095289;28;20229;-82
2020/12/23 01:29:57;;;;;;;0.80;0.80;;;;;;;;;;5094873;28;20233;-82
2020/12/23 01:32:23;;;;;;;0.87;0.87;;;;;;;;;;5094904;28;20550;-81
2020/12/23 01:34:49;;;;;;;1.60;0.97;;;;;;;;;;5095125;28;20249;-81
2020/12/23 01:37:15;;;;;;;0.90;0.90;;;;;;;;;;5095239;28;20535;-82
2020/12/23 01:39:42;;;;;;;1.00;1.00;;;;;;;;;;5095140;28;20229;-82
2020/12/23 01:42:08;;;;;;;3.80;1.10;;;;;;;;;;5094855;28;20241;-81
2020/12/23 01:44:36;;;;;;;1.50;0.90;;;;;;;;;;5094155;28;20225;-82
2020/12/23 01:47:03;;;;;;;1.20;1.10;;;;;;;;;;5095053;28;20201;-82
2020/12/23 01:49:29;;;;;;;1.00;1.00;;;;;;;;;;5094146;28;20244;-82
2020/12/23 01:51:55;;;;;;;1.47;1.03;;;;;;;;;;5095394;28;20230;-82
2020/12/23 01:54:21;;;;;;;1.03;0.90;;;;;;;;;;5094803;28;20479;-82
2020/12/23 01:56:48;;;;;;;0.93;0.80;;;;;;;;;;5097214;28;20209;-83
2020/12/23 01:59:14;;;;;;;3.00;1.03;;;;;;;;;;5098625;28;20542;-82
2020/12/23 02:01:45;;;;;;;0.90;0.90;;;;;;;;;;5098731;28;20249;-82
2020/12/23 02:04:11;;;;;;;1.10;1.00;;;;;;;;;;5098837;28;20209;-82
2020/12/23 02:06:37;;;;;;;2.53;1.03;;;;;;;;;;5098886;28;20205;-82
2020/12/23 02:09:03;;;;;;;1.43;1.00;;;;;;;;;;5098389;28;20594;-82
2020/12/23 02:11:30;;;;;;;1.00;1.00;;;;;;;;;;5098693;28;20607;-82
2020/12/23 02:13:56;;;;;;;2.33;1.00;;;;;;;;;;5098725;28;20249;-82
2020/12/23 02:16:23;;;;;;;1.13;1.10;;;;;;;;;;5098783;28;20237;-82
2020/12/23 02:18:49;;;;;;;1.10;1.10;;;;;;;;;;5097963;28;20236;-82
2020/12/23 02:21:15;;;;;;;0.80;0.80;;;;;;;;;;5098492;28;20221;-82
2020/12/23 02:23:42;;;;;;;1.20;1.20;;;;;;;;;;5098110;28;20225;-81
2020/12/23 02:26:08;;;;;;;1.00;1.00;;;;;;;;;;5098069;28;20232;-82
2020/12/23 02:28:35;;;;;;;1.07;1.07;;;;;;;;;;5098368;28;20240;-83
2020/12/23 02:31:01;;;;;;;4.30;1.30;;;;;;;;;;5098718;28;20240;-82
2020/12/23 02:33:27;;;;;;;1.00;1.00;;;;;;;;;;5097970;28;20680;-82
2020/12/23 02:35:54;;;;;;;0.80;0.80;;;;;;;;;;5098375;28;20226;-82
2020/12/23 02:38:20;;;;;;;1.10;1.10;;;;;;;;;;5098155;28;20206;-82
2020/12/23 02:40:47;;;;;;;1.57;1.20;;;;;;;;;;5098071;28;20711;-83
2020/12/23 02:43:13;;;;;;;1.73;1.30;;;;;;;;;;5098127;28;20626;-82
2020/12/23 02:45:39;;;;;;;6.37;2.73;;;;;;;;;;5098015;28;20236;-82
2020/12/23 02:48:05;;;;;;;3.00;2.47;;;;;;;;;;5098107;28;20229;-81
2020/12/23 02:50:31;;;;;;;4.37;2.60;;;;;;;;;;5097911;28;20240;-81
2020/12/23 02:52:57;;;;;;;2.00;1.90;;;;;;;;;;5097982;28;20622;-81
2020/12/23 02:55:23;;;;;;;1.30;1.30;;;;;;;;;;5097839;28;20232;-81
2020/12/23 02:57:50;;;;;;;2.37;1.30;;;;;;;;;;5097912;28;20240;-81
2020/12/23 03:00:16;;;;;;;3.90;1.70;;;;;;;;;;5097819;28;20259;-81
2020/12/23 03:02:42;;;;;;;1.60;1.50;;;;;;;;;;5097740;28;20256;-82
2020/12/23 03:05:08;;;;;;;1.47;1.20;;;;;;;;;;5097688;28;20895;-81
2020/12/23 03:07:34;;;;;;;1.43;1.33;;;;;;;;;;5097014;28;20237;-81
2020/12/23 03:10:02;;;;;;;3.97;1.90;;;;;;;;;;5097166;28;20236;-81
2020/12/23 03:12:28;;;;;;;2.10;1.60;;;;;;;;;;5097460;28;20229;-81
2020/12/23 03:14:55;;;;;;;3.37;1.70;;;;;;;;;;5097763;28;20248;-82
2020/12/23 03:17:21;;;;;;;1.60;1.50;;;;;;;;;;5097427;28;20585;-82
2020/12/23 03:19:47;;;;;;;1.33;1.33;;;;;;;;;;5096713;28;20275;-82
2020/12/23 03:22:13;;;;;;;3.13;1.50;;;;;;;;;;5097437;28;20565;-83
2020/12/23 03:24:39;;;;;;;2.43;1.40;;;;;;;;;;5097022;28;20614;-82
2020/12/23 03:27:05;;;;;;;2.20;1.47;;;;;;;;;;5097072;28;20233;-82
2020/12/23 03:29:31;;;;;;;1.40;1.40;;;;;;;;;;5096616;28;20240;-82
2020/12/23 03:31:58;;;;;;;1.60;1.50;;;;;;;;;;5097328;28;20724;-82
2020/12/23 03:34:24;;;;;;;1.67;1.57;;;;;;;;;;5096662;28;20225;-81
2020/12/23 03:36:50;;;;;;;3.67;2.50;;;;;;;;;;5097513;28;20241;-83
2020/12/23 03:39:16;;;;;;;9.70;4.67;;;;;;;;;;5097060;28;20230;-82
2020/12/23 03:41:42;;;;;;;11.87;3.87;;;;;;;;;;5097167;28;20236;-80
2020/12/23 03:44:09;;;;;;;7.27;3.30;;;;;;;;;;5096554;28;20238;-81
2020/12/23 03:46:35;;;;;;;4.80;2.47;;;;;;;;;;5097086;28;20307;-83
2020/12/23 03:49:02;;;;;;;4.43;1.80;;;;;;;;;;5095471;28;20202;-83
2020/12/23 03:51:28;;;;;;;1.23;1.23;;;;;;;;;;5097260;28;20625;-81
2020/12/23 03:53:54;;;;;;;3.03;1.50;;;;;;;;;;5096651;28;20221;-81
2020/12/23 03:56:20;;;;;;;1.80;1.70;;;;;;;;;;5096960;28;20531;-83
2020/12/23 03:58:46;;;;;;;2.03;1.80;;;;;;;;;;5096388;28;20601;-84
2020/12/23 04:01:12;;;;;;;2.63;1.27;;;;;;;;;;5096873;28;20240;-82
2020/12/23 04:03:38;;;;;;;1.40;1.40;;;;;;;;;;5096418;28;20242;-80
2020/12/23 04:06:05;;;;;;;2.20;1.77;;;;;;;;;;5096805;28;20240;-83
2020/12/23 04:08:31;;;;;;;6.20;2.43;;;;;;;;;;5096267;28;20229;-83
2020/12/23 04:10:57;;;;;;;20.83;2.97;;;;;;;;;;5096684;28;20229;-83
2020/12/23 04:13:23;;;;;;;1.60;1.50;;;;;;;;;;5096406;28;20249;-83
2020/12/23 04:15:49;;;;;;;5.07;2.43;;;;;;;;;;5096639;28;20233;-82
2020/12/23 04:18:15;;;;;;;8.53;3.77;;;;;;;;;;5096093;28;20641;-83
2020/12/23 04:20:42;;;;;;;1.80;1.70;;;;;;;;;;5096631;28;20237;-82
2020/12/23 04:23:09;;;;;;;4.60;1.63;;;;;;;;;;5096117;28;20245;-83
2020/12/23 04:25:35;;;;;;;7.73;3.20;;;;;;;;;;5096142;28;20242;-83
2020/12/23 04:28:01;;;;;;;6.67;3.17;;;;;;;;;;5096086;28;20198;-83
2020/12/23 04:30:27;;;;;;;3.60;2.13;;;;;;;;;;5096174;28;20244;-83
2020/12/23 04:32:54;;;;;;;1.73;1.50;;;;;;;;;;5095764;28;20222;-83
2020/12/23 04:35:20;;;;;;;3.57;1.30;;;;;;;;;;5096134;28;20690;-82
2020/12/23 04:37:46;;;;;;;1.40;1.30;;;;;;;;;;5095985;28;20229;-83
2020/12/23 04:40:13;;;;;;;1.50;1.40;;;;;;;;;;5095993;28;20229;-83
2020/12/23 04:42:39;;;;;;;2.03;1.07;;;;;;;;;;5095372;28;20253;-83
2020/12/23 04:45:05;;;;;;;1.43;1.30;;;;;;;;;;5095718;28;20231;-82
2020/12/23 04:47:32;;;;;;;1.10;1.00;;;;;;;;;;5095982;28;20229;-82
2020/12/23 04:49:58;;;;;;;1.27;1.27;;;;;;;;;;5095656;28;20240;-83
2020/12/23 04:52:30;;;;;;;1.37;1.10;;;;;;;;;;5095817;28;20229;-83
2020/12/23 04:54:57;;;;;;;3.80;1.30;;;;;;;;;;5095677;28;20241;-83
2020/12/23 04:57:25;;;;;;;6.57;1.20;;;;;;;;;;5095547;28;20606;-83
2020/12/23 04:59:51;;;;;;;1.70;0.93;;;;;;;;;;5095443;28;20241;-83
2020/12/23 05:02:17;;;;;;;2.73;1.30;;;;;;;;;;5094301;28;20233;-85
2020/12/23 05:04:43;;;;;;;1.10;1.00;;;;;;;;;;5095471;28;20229;-84
2020/12/23 05:07:09;;;;;;;2.93;1.37;;;;;;;;;;5095470;28;20606;-84
2020/12/23 05:09:35;;;;;;;0.70;0.70;;;;;;;;;;5095410;28;20225;-85
2020/12/23 05:12:02;;;;;;;0.93;0.80;;;;;;;;;;5095243;28;20652;-85
2020/12/23 05:14:29;;;;;;;0.77;0.77;;;;;;;;;;5095118;28;20248;-85
2020/12/23 05:16:55;;;;;;;1.00;0.60;;;;;;;;;;5095324;28;20201;-84
2020/12/23 05:19:22;;;;;;;2.30;0.70;;;;;;;;;;5095248;28;20237;-84
2020/12/23 05:21:48;;;;;;;0.87;0.50;;;;;;;;;;5094996;28;20636;-84
2020/12/23 05:24:14;;;;;;;0.43;0.43;;;;;;;;;;5094891;28;20261;-85
2020/12/23 05:26:41;;;;;;;0.67;0.67;;;;;;;;;;5095374;28;20240;-86
2020/12/23 05:29:09;;;;;;;1.90;0.67;;;;;;;;;;5094342;28;20236;-86
2020/12/23 05:31:36;;;;;;;0.67;0.40;;;;;;;;;;5094271;28;20257;-85
2020/12/23 05:34:03;;;;;;;0.43;0.33;;;;;;;;;;5093974;28;20245;-85
2020/12/23 05:36:30;;;;;;;1.17;0.50;;;;;;;;;;5094499;28;20233;-86
2020/12/23 05:38:57;;;;;;;0.73;0.50;;;;;;;;;;5093789;28;20244;-85
2020/12/23 05:41:24;;;;;;;3.83;0.40;;;;;;;;;;5094727;28;20632;-86
2020/12/23 05:43:50;;;;;;;8.10;0.60;;;;;;;;;;5093716;28;20218;-85
2020/12/23 05:46:17;;;;;;;0.30;0.30;;;;;;;;;;5093056;28;20221;-86
2020/12/23 05:48:44;;;;;;;0.30;0.30;;;;;;;;;;5094006;28;20258;-85
2020/12/23 05:51:10;;;;;;;0.50;0.50;;;;;;;;;;5094196;28;20236;-85
2020/12/23 05:53:37;;;;;;;1.57;0.23;;;;;;;;;;5094338;28;20232;-85
2020/12/23 05:56:04;;;;;;;1.80;0.40;;;;;;;;;;5093347;28;20247;-86
2020/12/23 05:58:31;;;;;;;1.27;0.40;;;;;;;;;;5094597;28;20554;-87
2020/12/23 06:00:58;;;;;;;1.40;0.40;;;;;;;;;;5094153;28;20202;-85
2020/12/23 06:03:29;;;;;;;1.50;0.30;;;;;;;;;;5094662;28;20260;-86
2020/12/23 06:05:58;;;;;;;1.07;0.50;;;;;;;;;;5094811;28;20206;-85
2020/12/23 06:08:29;;;;;;;0.83;0.50;;;;;;;;;;5094839;28;20229;-86
2020/12/23 06:11:00;;;;;;;0.40;0.40;;;;;;;;;;5094742;28;20226;-85
2020/12/23 06:13:37;;;;;;;0.50;0.50;;;;;;;;;;5094645;28;20230;-85
2020/12/23 06:16:04;;;;;;;0.50;0.50;;;;;;;;;;5094403;28;20214;-85
2020/12/23 06:18:32;;;;;;;0.50;0.50;;;;;;;;;;5095041;28;20201;-86
2020/12/23 06:21:06;;;;;;;3.13;0.80;;;;;;;;;;5093498;28;20201;-85
2020/12/23 06:23:32;;;;;;;0.60;0.60;;;;;;;;;;5094983;28;20253;-85
2020/12/23 06:25:59;;;;;;;0.70;0.70;;;;;;;;;;5094317;28;20267;-86
2020/12/23 06:28:26;;;;;;;1.77;0.80;;;;;;;;;;5094739;28;20614;-85
2020/12/23 06:30:53;;;;;;;1.80;1.70;;;;;;;;;;5094286;28;20226;-86
2020/12/23 06:33:20;;;;;;;3.27;2.30;;;;;;;;;;5094415;28;20238;-85
2020/12/23 06:35:46;;;;;;;1.40;1.40;;;;;;;;;;5094784;28;20236;-88
2020/12/23 06:38:20;;;;;;;1.80;1.70;;;;;;;;;;5094372;28;20225;-85
2020/12/23 06:40:56;;;;;;;3.03;1.47;;;;;;;;;;5094523;28;20241;-86
2020/12/23 06:43:52;;;;;;;1.50;1.47;;;;;;;;;;5095259;28;20248;-85
2020/12/23 06:46:18;;;;;;;1.27;1.27;;;;;;;;;;5097729;28;20237;-86
2020/12/23 06:48:44;;;;;;;3.67;1.60;;;;;;;;;;5097692;28;20538;-86
2020/12/23 06:51:10;;;;;;;1.30;1.13;;;;;;;;;;5097141;28;20233;-88
2020/12/23 06:53:37;;;;;;;3.43;1.20;;;;;;;;;;5097953;28;20221;-87
2020/12/23 06:56:04;;;;;;;1.57;1.47;;;;;;;;;;5097518;28;20232;-87
2020/12/23 06:58:39;;;;;;;1.60;1.50;;;;;;;;;;5097761;28;20201;-85
2020/12/23 07:01:15;;;;;;;1.43;1.40;;;;;;;;;;5098043;28;20561;-85
2020/12/23 07:03:41;;;;;;;1.60;1.50;;;;;;;;;;5096301;28;20245;-87
2020/12/23 07:06:27;;;;;;;2.00;1.47;;;;;;;;;;5097466;28;20230;-86
2020/12/23 07:08:54;;;;;;;1.70;1.60;;;;;;;;;;5097677;28;20213;-85
2020/12/23 07:11:21;;;;;;;1.57;1.47;;;;;;;;;;5097550;28;20232;-86
2020/12/23 07:13:49;;;;;;;1.40;1.40;;;;;;;;;;5097451;28;20491;-86
2020/12/23 07:16:15;;;;;;;1.40;1.30;;;;;;;;;;5097372;28;20237;-86
2020/12/23 07:18:41;;;;;;;1.70;1.43;;;;;;;;;;5097539;28;20214;-87
2020/12/23 07:21:07;;;;;;;1.73;1.63;;;;;;;;;;5097674;28;20236;-88
2020/12/23 07:23:34;;;;;;;1.40;1.40;;;;;;;;;;5097052;28;20252;-87
2020/12/23 07:26:03;;;;;;;1.50;1.40;;;;;;;;;;5097130;28;20468;-88
2020/12/23 07:28:31;;;;;;;1.40;1.30;;;;;;;;;;5097529;28;20238;-88
2020/12/23 07:30:57;;;;;;;1.53;1.43;;;;;;;;;;5096791;28;20614;-88
2020/12/23 07:33:25;;;;;;;1.30;1.30;;;;;;;;;;5097168;28;20673;-87
2020/12/23 07:35:52;;;;;;;1.37;1.37;;;;;;;;;;5097242;28;20241;-91
2020/12/23 07:38:19;;;;;;;1.70;1.50;;;;;;;;;;5096991;28;20567;-90
2020/12/23 07:40:45;;;;;;;1.40;1.30;;;;;;;;;;5096280;28;20228;-89
2020/12/23 07:43:13;;;;;;;1.70;1.60;;;;;;;;;;5096784;28;20256;-91
2020/12/23 07:45:40;;;;;;;1.27;1.27;;;;;;;;;;5096519;28;20229;-90
2020/12/23 07:48:07;;;;;;;1.73;1.63;;;;;;;;;;5096822;28;20229;-90
2020/12/23 07:50:34;;;;;;;6.37;3.10;;;;;;;;;;5096643;28;20201;-89
2020/12/23 07:53:10;;;;;;;3.87;2.20;;;;;;;;;;5096738;28;20236;-90
2020/12/23 07:55:37;;;;;;;4.33;1.40;;;;;;;;;;5095553;28;20229;-89
2020/12/23 07:58:03;;;;;;;1.23;1.23;;;;;;;;;;5096441;28;20281;-88
2020/12/23 08:00:30;;;;;;;2.80;1.57;;;;;;;;;;5096775;28;20235;-88
2020/12/23 08:02:56;;;;;;;1.50;1.40;;;;;;;;;;5096569;28;20252;-88
2020/12/23 08:05:22;;;;;;;1.33;1.33;;;;;;;;;;5096685;28;20205;-87
2020/12/23 08:07:48;;;;;;;1.73;1.63;;;;;;;;;;5096601;28;20244;-88
2020/12/23 08:10:15;;;;;;;3.03;1.40;;;;;;;;;;5096698;28;20206;-88
2020/12/23 08:12:41;;;;;;;3.10;1.60;;;;;;;;;;5096410;28;20236;-87
2020/12/23 08:15:08;;;;;;;5.03;2.27;;;;;;;;;;5096412;28;20933;-89
2020/12/23 08:17:35;;;;;;;12.60;5.37;;;;;;;;;;5096717;28;20233;-88
2020/12/23 08:20:03;;;;;;;3.00;2.20;;;;;;;;;;5096184;28;20241;-89
2020/12/23 08:22:29;;;;;;;3.70;1.50;;;;;;;;;;5096172;28;20201;-90
2020/12/23 08:25:02;;;;;;;1.30;1.30;;;;;;;;;;5096515;28;20225;-88
2020/12/23 08:27:29;;;;;;;1.70;1.60;;;;;;;;;;5096250;28;20232;-89
2020/12/23 08:29:55;;;;;;;2.90;1.70;;;;;;;;;;5094874;28;20194;-90
2020/12/23 08:32:24;;;;;;;4.70;2.20;;;;;;;;;;5094811;28;20664;-89
2020/12/23 08:34:52;;;;;;;3.20;2.13;;;;;;;;;;5094066;28;20226;-89
2020/12/23 08:37:21;;;;;;;2.30;1.10;;;;;;;;;;5096115;28;20665;-89
2020/12/23 08:39:52;;;;;;;1.40;1.40;;;;;;;;;;5095617;28;20226;-89
2020/12/23 08:42:18;;;;;;;1.47;1.40;;;;;;;;;;5095576;28;20226;-88
2020/12/23 08:44:44;;;;;;;2.87;1.50;;;;;;;;;;5095704;28;20249;-88
2020/12/23 08:47:18;;;;;;;1.83;1.60;;;;;;;;;;5095931;28;20240;-89
2020/12/23 08:49:44;;;;;;;5.20;1.70;;;;;;;;;;5096007;28;20226;-88
2020/12/23 08:52:16;;;;;;;1.90;1.27;;;;;;;;;;5095753;28;20229;-88
2020/12/23 08:54:42;;;;;;;2.27;1.63;;;;;;;;;;5095857;28;20205;-89
2020/12/23 08:57:10;;;;;;;2.23;1.60;;;;;;;;;;5096042;28;20229;-89
2020/12/23 08:59:38;;;;;;;2.27;1.50;;;;;;;;;;5094362;28;20258;-90
2020/12/23 09:02:11;;;;;;;1.50;1.50;;;;;;;;;;5094466;28;20193;-87
2020/12/23 09:04:38;;;;;;;3.27;1.87;;;;;;;;;;5095510;28;20245;-87
2020/12/23 09:07:04;;;;;;;1.57;1.47;;;;;;;;;;5094887;28;20610;-90
2020/12/23 09:09:31;;;;;;;1.50;1.40;;;;;;;;;;5095284;28;20245;-92
2020/12/23 09:11:58;;;;;;;1.57;1.47;;;;;;;;;;5095582;28;20471;-89
2020/12/23 09:14:28;;;;;;;1.83;1.73;;;;;;;;;;5094354;28;20231;-91
2020/12/23 09:16:58;;;;;;;1.43;1.33;;;;;;;;;;5095446;28;20174;-90
2020/12/23 09:19:40;;;;;;;3.90;1.20;;;;;;;;;;5077782;28;20194;-92
2020/12/23 09:22:06;;;;;;;1.30;1.30;;;;;;;;;;5094443;28;20186;-93
2020/12/23 09:24:33;;;;;;;1.80;1.70;;;;;;;;;;5094975;28;20228;-89
2020/12/23 09:26:59;;;;;;;1.50;1.40;;;;;;;;;;5095260;28;20210;-89
2020/12/23 09:29:40;;;;;;;1.50;1.40;;;;;;;;;;5095107;28;20225;-88
2020/12/23 09:32:06;;;;;;;1.30;1.30;;;;;;;;;;5095208;28;20660;-86
2020/12/23 09:34:32;;;;;;;1.93;1.80;;;;;;;;;;5094630;28;20245;-87
2020/12/23 09:36:58;;;;;;;2.23;1.70;;;;;;;;;;5095188;28;20178;-87
2020/12/23 09:39:25;;;;;;;2.03;1.93;;;;;;;;;;5093588;28;20201;-86
2020/12/23 09:42:01;;;;;;;5.90;2.50;;;;;;;;;;5095279;28;20210;-88
2020/12/23 09:44:27;;;;;;;2.10;1.80;;;;;;;;;;5094552;28;20255;-88
2020/12/23 09:46:53;;;;;;;1.50;1.40;;;;;;;;;;5095157;28;20225;-87
2020/12/23 09:49:19;;;;;;;2.97;1.53;;;;;;;;;;5093838;28;20229;-86
2020/12/23 09:51:46;;;;;;;1.50;1.40;;;;;;;;;;5094640;28;20511;-86
2020/12/23 09:54:12;;;;;;;2.30;1.43;;;;;;;;;;5094622;28;20229;-88
2020/12/23 09:56:45;;;;;;;1.47;1.37;;;;;;;;;;5095128;28;20263;-87
2020/12/23 09:59:12;;;;;;;1.53;1.53;;;;;;;;;;5094575;28;20241;-87
2020/12/23 10:01:38;;;;;;;1.30;1.30;;;;;;;;;;5095069;28;20190;-87
2020/12/23 10:04:04;;;;;;;3.87;1.53;;;;;;;;;;5093378;28;20633;-85
2020/12/23 10:06:30;;;;;;;1.57;1.43;;;;;;;;;;5094930;28;20233;-85
2020/12/23 10:08:56;;;;;;;1.40;1.40;;;;;;;;;;5094691;28;20541;-86
2020/12/23 10:11:22;;;;;;;1.40;1.40;;;;;;;;;;5094972;28;20233;-87
2020/12/23 10:13:48;;;;;;;2.20;1.80;;;;;;;;;;5094526;28;20502;-86
2020/12/23 10:16:15;;;;;;;3.80;1.90;;;;;;;;;;5093638;28;20202;-86
2020/12/23 10:18:42;;;;;;;2.50;1.40;;;;;;;;;;5097758;28;20233;-86
2020/12/23 10:21:08;;;;;;;1.60;1.60;;;;;;;;;;5097453;28;20259;-85
2020/12/23 10:23:35;;;;;;;1.60;1.47;;;;;;;;;;5098408;28;20249;-86
2020/12/23 10:26:01;;;;;;;1.67;1.60;;;;;;;;;;5097297;28;20610;-87
2020/12/23 10:28:27;;;;;;;4.17;1.80;;;;;;;;;;5098668;28;20232;-87
2020/12/23 10:30:53;;;;;;;2.60;2.20;;;;;;;;;;5097320;28;20625;-87
2020/12/23 10:33:20;;;;;;;1.97;1.87;;;;;;;;;;5097957;28;20238;-88
2020/12/23 10:35:46;;;;;;;2.70;1.70;;;;;;;;;;5098240;28;20226;-86
2020/12/23 10:38:12;;;;;;;2.93;2.00;;;;;;;;;;5098263;28;20241;-87
2020/12/23 10:40:38;;;;;;;1.80;1.70;;;;;;;;;;5097099;28;20226;-86
2020/12/23 10:43:04;;;;;;;3.00;1.90;;;;;;;;;;5097704;28;20554;-83
2020/12/23 10:45:30;;;;;;;1.67;1.57;;;;;;;;;;5098512;28;20236;-85
2020/12/23 10:47:56;;;;;;;3.07;1.97;;;;;;;;;;5098071;28;20551;-87
2020/12/23 10:50:23;;;;;;;1.90;1.80;;;;;;;;;;5098011;28;20206;-87
2020/12/23 10:52:49;;;;;;;2.30;2.10;;;;;;;;;;5097519;28;20237;-85
2020/12/23 10:55:15;;;;;;;1.87;1.77;;;;;;;;;;5097920;28;20536;-87
2020/12/23 10:57:41;;;;;;;1.93;1.83;;;;;;;;;;5097625;28;20234;-87
2020/12/23 11:00:08;;;;;;;1.90;1.80;;;;;;;;;;5098150;28;20236;-85
2020/12/23 11:02:34;;;;;;;1.87;1.77;;;;;;;;;;5097594;28;20437;-86
2020/12/23 11:05:00;;;;;;;2.20;2.10;;;;;;;;;;5098175;28;20241;-86
2020/12/23 11:07:27;;;;;;;2.57;1.87;;;;;;;;;;5097844;28;20240;-85
2020/12/23 11:09:53;;;;;;;2.23;2.10;;;;;;;;;;5098141;28;20230;-85
2020/12/23 11:12:19;;;;;;;2.73;2.10;;;;;;;;;;5097897;28;20502;-85
2020/12/23 11:14:47;;;;;;;3.77;2.40;;;;;;;;;;5097695;28;20226;-85
2020/12/23 11:17:13;;;;;;;2.40;2.20;;;;;;;;;;5096577;28;20198;-89
2020/12/23 11:19:39;;;;;;;2.80;2.17;;;;;;;;;;5097308;28;20229;-86
2020/12/23 11:22:05;;;;;;;3.27;2.10;;;;;;;;;;5097098;28;20658;-87
2020/12/23 11:24:32;;;;;;;4.60;3.77;;;;;;;;;;5096611;28;20238;-86
2020/12/23 11:26:59;;;;;;;6.70;4.13;;;;;;;;;;5096808;28;20210;-85
2020/12/23 11:29:25;;;;;;;4.33;3.60;;;;;;;;;;5096212;28;20218;-87
2020/12/23 11:31:52;;;;;;;4.27;2.70;;;;;;;;;;5096897;28;20217;-86
2020/12/23 11:34:18;;;;;;;3.07;2.40;;;;;;;;;;5096342;28;20571;-87
2020/12/23 11:36:44;;;;;;;4.80;2.60;;;;;;;;;;5094532;28;20247;-87
2020/12/23 11:39:10;;;;;;;2.90;2.67;;;;;;;;;;5096908;28;20237;-85
2020/12/23 11:41:37;;;;;;;2.17;2.07;;;;;;;;;;5097029;28;20225;-87
2020/12/23 11:44:03;;;;;;;2.00;1.90;;;;;;;;;;5096411;28;20241;-85
2020/12/23 11:46:31;;;;;;;2.33;2.20;;;;;;;;;;5096955;28;20236;-86
2020/12/23 11:48:57;;;;;;;2.50;2.40;;;;;;;;;;5096685;28;20232;-86
2020/12/23 11:51:23;;;;;;;2.50;2.30;;;;;;;;;;5096698;28;20606;-85
2020/12/23 11:53:49;;;;;;;4.47;2.47;;;;;;;;;;5097217;28;20367;-90
2020/12/23 11:56:15;;;;;;;4.80;2.37;;;;;;;;;;5096367;28;20213;-87
2020/12/23 11:58:42;;;;;;;3.30;2.00;;;;;;;;;;5096551;28;20238;-86
2020/12/23 12:01:08;;;;;;;3.27;2.50;;;;;;;;;;5098322;28;20231;-87
2020/12/23 12:03:34;;;;;;;2.07;1.97;;;;;;;;;;5096085;28;20228;-86
2020/12/23 12:06:00;;;;;;;2.43;2.33;;;;;;;;;;5096718;28;20547;-88
2020/12/23 12:08:29;;;;;;;2.30;2.10;;;;;;;;;;5094525;28;20270;-87
2020/12/23 12:10:55;;;;;;;2.27;2.10;;;;;;;;;;5096876;28;20233;-88
2020/12/23 12:13:21;;;;;;;4.13;2.20;;;;;;;;;;5096598;28;20178;-89
2020/12/23 12:15:48;;;;;;;2.37;2.17;;;;;;;;;;5096694;28;20209;-89
2020/12/23 12:18:14;;;;;;;3.07;2.30;;;;;;;;;;5095255;28;20626;-86
2020/12/23 12:20:40;;;;;;;2.43;2.10;;;;;;;;;;5097504;28;20224;-89
2020/12/23 12:23:06;;;;;;;3.73;2.50;;;;;;;;;;5096186;28;20241;-89
2020/12/23 12:25:34;;;;;;;2.20;2.10;;;;;;;;;;5095232;28;20233;-88
2020/12/23 12:28:01;;;;;;;2.53;2.33;;;;;;;;;;5096020;28;20209;-88
2020/12/23 12:30:27;;;;;;;2.00;1.90;;;;;;;;;;5096276;28;20242;-89
2020/12/23 12:32:54;;;;;;;2.27;2.10;;;;;;;;;;5095973;28;20498;-87
2020/12/23 12:35:20;;;;;;;2.37;2.27;;;;;;;;;;5093881;28;20232;-88
2020/12/23 12:37:46;;;;;;;3.30;1.80;;;;;;;;;;5094015;28;20229;-88
2020/12/23 12:40:12;;;;;;;4.00;2.27;;;;;;;;;;5093438;28;20267;-88
2020/12/23 12:42:38;;;;;;;2.03;1.93;;;;;;;;;;5094465;28;20249;-87
2020/12/23 12:45:04;;;;;;;2.30;1.90;;;;;;;;;;5095358;28;20245;-88
2020/12/23 12:47:31;;;;;;;2.00;1.90;;;;;;;;;;5094849;28;20220;-89
2020/12/23 12:49:58;;;;;;;3.77;2.10;;;;;;;;;;5095225;28;20206;-88
2020/12/23 12:52:24;;;;;;;2.27;2.07;;;;;;;;;;5094687;28;20236;-89
2020/12/23 12:54:50;;;;;;;2.40;2.20;;;;;;;;;;5095439;28;20182;-89
2020/12/23 12:57:16;;;;;;;2.07;1.93;;;;;;;;;;5093406;28;20558;-89
2020/12/23 12:59:42;;;;;;;2.70;2.47;;;;;;;;;;5094149;28;20547;-88
2020/12/23 13:02:08;;;;;;;2.13;1.90;;;;;;;;;;5095049;28;20233;-88
2020/12/23 13:04:34;;;;;;;2.20;1.97;;;;;;;;;;5094799;28;20249;-88
2020/12/23 13:07:01;;;;;;;2.30;2.10;;;;;;;;;;5094396;28;20236;-90
2020/12/23 13:09:27;;;;;;;2.63;2.00;;;;;;;;;;5094528;28;20263;-88
2020/12/23 13:11:58;;;;;;;2.40;2.30;;;;;;;;;;5095090;28;20225;-89
2020/12/23 13:14:24;;;;;;;1.97;1.87;;;;;;;;;;5093680;28;20236;-90
2020/12/23 13:16:50;;;;;;;2.07;1.83;;;;;;;;;;5094789;28;20272;-88
2020/12/23 13:19:16;;;;;;;2.10;2.00;;;;;;;;;;5095006;28;20213;-87
2020/12/23 13:21:42;;;;;;;3.30;1.93;;;;;;;;;;5093507;28;20239;-87
2020/12/23 13:24:10;;;;;;;2.20;2.03;;;;;;;;;;5094174;28;20481;-87
2020/12/23 13:26:37;;;;;;;3.07;1.60;;;;;;;;;;5094383;28;20228;-86
2020/12/23 13:29:03;;;;;;;1.67;1.60;;;;;;;;;;5094243;28;20225;-87
2020/12/23 13:31:29;;;;;;;2.00;1.90;;;;;;;;;;5093282;28;20516;-88
2020/12/23 13:33:57;;;;;;;2.13;1.93;;;;;;;;;;5093751;28;20256;-87
2020/12/23 13:36:23;;;;;;;2.50;1.73;;;;;;;;;;5094596;28;20222;-89
2020/12/23 13:38:50;;;;;;;2.10;1.90;;;;;;;;;;5094307;28;20182;-86
2020/12/23 13:41:16;;;;;;;1.80;1.70;;;;;;;;;;5094533;28;20322;-87
2020/12/23 13:43:43;;;;;;;1.97;1.87;;;;;;;;;;5092871;28;20464;-86
2020/12/23 13:46:12;;;;;;;1.80;1.80;;;;;;;;;;5094507;28;20225;-87
2020/12/23 13:48:38;;;;;;;1.90;1.80;;;;;;;;;;5092914;28;20225;-87
2020/12/23 13:51:04;;;;;;;1.83;1.73;;;;;;;;;;5093841;28;20515;-88
2020/12/23 13:53:30;;;;;;;6.13;1.93;;;;;;;;;;5097350;28;20237;-85
2020/12/23 13:55:56;;;;;;;1.93;1.83;;;;;;;;;;5098648;28;20225;-86
2020/12/23 13:58:23;;;;;;;1.70;1.60;;;;;;;;;;5097243;28;20239;-87
2020/12/23 14:00:49;;;;;;;2.10;1.90;;;;;;;;;;5097224;28;20560;-86
2020/12/23 14:03:16;;;;;;;1.50;1.50;;;;;;;;;;5098587;28;20233;-87
2020/12/23 14:05:43;;;;;;;1.87;1.77;;;;;;;;;;5098067;28;20602;-86
2020/12/23 14:08:09;;;;;;;1.80;1.70;;;;;;;;;;5098098;28;20240;-87
2020/12/23 14:10:35;;;;;;;1.90;1.80;;;;;;;;;;5097115;28;20480;-85
2020/12/23 14:13:01;;;;;;;1.87;1.77;;;;;;;;;;5097884;28;20233;-86
2020/12/23 14:15:28;;;;;;;4.03;2.10;;;;;;;;;;5098073;28;20245;-85
2020/12/23 14:17:54;;;;;;;1.87;1.80;;;;;;;;;;5097931;28;20222;-86
2020/12/23 14:20:20;;;;;;;2.10;2.00;;;;;;;;;;5098109;28;20217;-87
2020/12/23 14:22:46;;;;;;;2.07;1.90;;;;;;;;;;5097447;28;20240;-85
2020/12/23 14:25:13;;;;;;;1.87;1.87;;;;;;;;;;5098107;28;20554;-86
2020/12/23 14:27:39;;;;;;;3.03;2.07;;;;;;;;;;5097954;28;20206;-83
2020/12/23 14:30:05;;;;;;;2.10;2.00;;;;;;;;;;5097591;28;20287;-85
2020/12/23 14:32:32;;;;;;;3.43;2.03;;;;;;;;;;5098759;28;20263;-83
2020/12/23 14:34:58;;;;;;;3.77;2.00;;;;;;;;;;5098604;28;20743;-83
2020/12/23 14:37:24;;;;;;;2.00;1.90;;;;;;;;;;5097953;28;20263;-84
2020/12/23 14:39:50;;;;;;;1.90;1.80;;;;;;;;;;5098978;28;20622;-89
2020/12/23 14:42:16;;;;;;;2.67;2.30;;;;;;;;;;5098952;28;20221;-84